sensor_id;sensor_type;location;lat;lon;timestamp;temperature;humidity
39067;DHT22;24821;51.988;6.020;2024-02-14T00:02:05;8.80;99.90
39067;DHT22;24821;51.988;6.020;2024-02-14T00:04:31;8.90;99.90
39067;DHT22;24821;51.988;6.020;2024-02-14T00:06:56;8.80;99.90
39067;DHT22;24821;51.988;6.020;2024-02-14T00:09:22;8.80;99.90
39067;DHT22;24821;51.988;6.020;2024-02-14T00:11:47;8.90;99.90
39067;DHT22;24821;51.988;6.020;2024-02-14T00:14:13;8.90;99.90
39067;DHT22;24821;51.988;6.020;2024-02-14T00:16:39;8.90;99.90
39067;DHT22;24821;51.988;6.020;2024-02-14T00:19:04;8.90;99.90
39067;DHT22;24821;51.988;6.020;2024-02-14T00:21:30;8.90;99.90
39067;DHT22;24821;51.988;6.020;2024-02-14T00:23:57;8.90;99.90
39067;DHT22;24821;51.988;6.020;2024-02-14T00:26:23;8.90;99.90
39067;DHT22;24821;51.988;6.020;2024-02-14T00:28:49;8.90;99.90
39067;DHT22;24821;51.988;6.020;2024-02-14T00:31:15;8.90;99.90
39067;DHT22;24821;51.988;6.020;2024-02-14T00:33:41;8.90;99.90
39067;DHT22;24821;51.988;6.020;2024-02-14T00:36:06;8.90;99.90
39067;DHT22;24821;51.988;6.020;2024-02-14T00:38:32;8.90;99.90
39067;DHT22;24821;51.988;6.020;2024-02-14T00:40:57;8.90;99.90
39067;DHT22;24821;51.988;6.020;2024-02-14T00:43:23;9.00;99.90
39067;DHT22;24821;51.988;6.020;2024-02-14T00:45:48;9.00;99.90
39067;DHT22;24821;51.988;6.020;2024-02-14T00:48:14;9.00;99.90
39067;DHT22;24821;51.988;6.020;2024-02-14T00:50:39;9.00;99.90
39067;DHT22;24821;51.988;6.020;2024-02-14T00:53:04;9.00;99.90
39067;DHT22;24821;51.988;6.020;2024-02-14T00:55:30;9.00;99.90
39067;DHT22;24821;51.988;6.020;2024-02-14T00:57:55;9.00;99.90
39067;DHT22;24821;51.988;6.020;2024-02-14T01:00:21;9.00;99.90
39067;DHT22;24821;51.988;6.020;2024-02-14T01:02:46;9.00;99.90
39067;DHT22;24821;51.988;6.020;2024-02-14T01:05:12;9.00;99.90
39067;DHT22;24821;51.988;6.020;2024-02-14T01:07:37;9.10;99.90
39067;DHT22;24821;51.988;6.020;2024-02-14T01:10:03;9.10;99.90
39067;DHT22;24821;51.988;6.020;2024-02-14T01:12:28;9.10;99.90
39067;DHT22;24821;51.988;6.020;2024-02-14T01:14:57;9.10;99.90
39067;DHT22;24821;51.988;6.020;2024-02-14T01:17:23;9.10;99.90
39067;DHT22;24821;51.988;6.020;2024-02-14T01:19:49;9.10;99.90
39067;DHT22;24821;51.988;6.020;2024-02-14T01:22:14;9.10;99.90
39067;DHT22;24821;51.988;6.020;2024-02-14T01:24:44;9.10;99.90
39067;DHT22;24821;51.988;6.020;2024-02-14T01:27:10;9.20;99.90
39067;DHT22;24821;51.988;6.020;2024-02-14T01:29:35;9.20;99.90
39067;DHT22;24821;51.988;6.020;2024-02-14T01:32:01;9.20;99.90
39067;DHT22;24821;51.988;6.020;2024-02-14T01:34:26;9.20;99.90
39067;DHT22;24821;51.988;6.020;2024-02-14T01:36:53;9.30;99.90
39067;DHT22;24821;51.988;6.020;2024-02-14T01:39:19;9.30;99.90
39067;DHT22;24821;51.988;6.020;2024-02-14T01:41:47;9.30;99.90
39067;DHT22;24821;51.988;6.020;2024-02-14T01:44:16;9.30;99.90
39067;DHT22;24821;51.988;6.020;2024-02-14T01:46:42;9.30;99.90
39067;DHT22;24821;51.988;6.020;2024-02-14T01:49:09;9.30;99.90
39067;DHT22;24821;51.988;6.020;2024-02-14T01:51:35;9.40;99.90
39067;DHT22;24821;51.988;6.020;2024-02-14T01:54:01;9.40;99.90
39067;DHT22;24821;51.988;6.020;2024-02-14T01:56:28;9.40;99.90
39067;DHT22;24821;51.988;6.020;2024-02-14T01:58:54;9.50;99.90
39067;DHT22;24821;51.988;6.020;2024-02-14T02:01:19;9.50;99.90
39067;DHT22;24821;51.988;6.020;2024-02-14T02:03:46;9.50;99.90
39067;DHT22;24821;51.988;6.020;2024-02-14T02:06:11;9.50;99.90
39067;DHT22;24821;51.988;6.020;2024-02-14T02:08:37;9.50;99.90
39067;DHT22;24821;51.988;6.020;2024-02-14T02:11:02;9.50;99.90
39067;DHT22;24821;51.988;6.020;2024-02-14T02:13:28;9.60;99.90
39067;DHT22;24821;51.988;6.020;2024-02-14T02:15:53;9.60;99.90
39067;DHT22;24821;51.988;6.020;2024-02-14T02:18:19;9.60;99.90
39067;DHT22;24821;51.988;6.020;2024-02-14T02:20:45;9.60;99.90
39067;DHT22;24821;51.988;6.020;2024-02-14T02:23:13;9.60;99.90
39067;DHT22;24821;51.988;6.020;2024-02-14T02:25:40;9.60;99.90
39067;DHT22;24821;51.988;6.020;2024-02-14T02:28:05;9.70;99.90
39067;DHT22;24821;51.988;6.020;2024-02-14T02:30:31;9.70;99.90
39067;DHT22;24821;51.988;6.020;2024-02-14T02:32:56;9.70;99.90
39067;DHT22;24821;51.988;6.020;2024-02-14T02:35:23;9.70;99.90
39067;DHT22;24821;51.988;6.020;2024-02-14T02:37:49;9.80;99.90
39067;DHT22;24821;51.988;6.020;2024-02-14T02:40:16;9.80;99.90
39067;DHT22;24821;51.988;6.020;2024-02-14T02:42:42;9.80;99.90
39067;DHT22;24821;51.988;6.020;2024-02-14T02:45:10;9.80;99.90
39067;DHT22;24821;51.988;6.020;2024-02-14T02:47:36;9.80;99.90
39067;DHT22;24821;51.988;6.020;2024-02-14T02:50:01;9.80;99.90
39067;DHT22;24821;51.988;6.020;2024-02-14T02:52:28;9.80;99.90
39067;DHT22;24821;51.988;6.020;2024-02-14T02:54:54;9.80;99.90
39067;DHT22;24821;51.988;6.020;2024-02-14T02:57:19;9.80;99.90
39067;DHT22;24821;51.988;6.020;2024-02-14T02:59:45;9.90;99.90
39067;DHT22;24821;51.988;6.020;2024-02-14T03:02:13;9.80;99.90
39067;DHT22;24821;51.988;6.020;2024-02-14T03:04:39;9.80;99.90
39067;DHT22;24821;51.988;6.020;2024-02-14T03:07:04;9.80;99.90
39067;DHT22;24821;51.988;6.020;2024-02-14T03:09:36;9.80;99.90
39067;DHT22;24821;51.988;6.020;2024-02-14T03:12:02;9.80;99.90
39067;DHT22;24821;51.988;6.020;2024-02-14T03:14:29;9.90;99.90
39067;DHT22;24821;51.988;6.020;2024-02-14T03:17:00;9.80;99.90
39067;DHT22;24821;51.988;6.020;2024-02-14T03:19:27;9.80;99.90
39067;DHT22;24821;51.988;6.020;2024-02-14T03:21:53;9.90;99.90
39067;DHT22;24821;51.988;6.020;2024-02-14T03:24:19;9.90;99.90
39067;DHT22;24821;51.988;6.020;2024-02-14T03:26:44;9.90;99.90
39067;DHT22;24821;51.988;6.020;2024-02-14T03:29:10;9.90;99.90
39067;DHT22;24821;51.988;6.020;2024-02-14T03:31:35;9.90;99.90
39067;DHT22;24821;51.988;6.020;2024-02-14T03:34:01;9.90;99.90
39067;DHT22;24821;51.988;6.020;2024-02-14T03:36:27;9.90;99.90
39067;DHT22;24821;51.988;6.020;2024-02-14T03:38:56;10.00;99.90
39067;DHT22;24821;51.988;6.020;2024-02-14T03:41:22;10.00;99.90
39067;DHT22;24821;51.988;6.020;2024-02-14T03:43:47;10.00;99.90
39067;DHT22;24821;51.988;6.020;2024-02-14T03:46:14;10.00;99.90
39067;DHT22;24821;51.988;6.020;2024-02-14T03:48:40;10.00;99.90
39067;DHT22;24821;51.988;6.020;2024-02-14T03:51:08;10.00;99.90
39067;DHT22;24821;51.988;6.020;2024-02-14T03:53:34;10.00;99.90
39067;DHT22;24821;51.988;6.020;2024-02-14T03:55:59;10.10;99.90
39067;DHT22;24821;51.988;6.020;2024-02-14T03:58:25;10.10;99.90
39067;DHT22;24821;51.988;6.020;2024-02-14T04:00:51;10.10;99.90
39067;DHT22;24821;51.988;6.020;2024-02-14T04:03:17;10.10;99.90
39067;DHT22;24821;51.988;6.020;2024-02-14T04:05:43;10.10;99.90
39067;DHT22;24821;51.988;6.020;2024-02-14T04:08:08;10.10;99.90
39067;DHT22;24821;51.988;6.020;2024-02-14T04:10:35;10.20;99.90
39067;DHT22;24821;51.988;6.020;2024-02-14T04:13:02;10.20;99.90
39067;DHT22;24821;51.988;6.020;2024-02-14T04:15:28;10.20;99.90
39067;DHT22;24821;51.988;6.020;2024-02-14T04:17:53;10.20;99.90
39067;DHT22;24821;51.988;6.020;2024-02-14T04:20:19;10.30;99.90
39067;DHT22;24821;51.988;6.020;2024-02-14T04:22:44;10.20;99.90
39067;DHT22;24821;51.988;6.020;2024-02-14T04:25:10;10.30;99.90
39067;DHT22;24821;51.988;6.020;2024-02-14T04:27:35;10.20;99.90
39067;DHT22;24821;51.988;6.020;2024-02-14T04:30:01;10.30;99.90
39067;DHT22;24821;51.988;6.020;2024-02-14T04:32:26;10.30;99.90
39067;DHT22;24821;51.988;6.020;2024-02-14T04:34:52;10.30;99.90
39067;DHT22;24821;51.988;6.020;2024-02-14T04:37:18;10.30;99.90
39067;DHT22;24821;51.988;6.020;2024-02-14T04:39:44;10.40;99.90
39067;DHT22;24821;51.988;6.020;2024-02-14T04:42:09;10.40;99.90
39067;DHT22;24821;51.988;6.020;2024-02-14T04:44:35;10.40;99.90
39067;DHT22;24821;51.988;6.020;2024-02-14T04:47:00;10.40;99.90
39067;DHT22;24821;51.988;6.020;2024-02-14T04:49:26;10.40;99.90
39067;DHT22;24821;51.988;6.020;2024-02-14T04:51:54;10.40;99.90
39067;DHT22;24821;51.988;6.020;2024-02-14T04:54:19;10.40;99.90
39067;DHT22;24821;51.988;6.020;2024-02-14T04:56:45;10.40;99.90
39067;DHT22;24821;51.988;6.020;2024-02-14T04:59:11;10.40;99.90
39067;DHT22;24821;51.988;6.020;2024-02-14T05:01:36;10.40;99.90
39067;DHT22;24821;51.988;6.020;2024-02-14T05:04:02;10.40;99.90
39067;DHT22;24821;51.988;6.020;2024-02-14T05:06:28;10.40;99.90
39067;DHT22;24821;51.988;6.020;2024-02-14T05:08:53;10.40;99.90
39067;DHT22;24821;51.988;6.020;2024-02-14T05:11:19;10.40;99.90
39067;DHT22;24821;51.988;6.020;2024-02-14T05:13:45;10.40;99.90
39067;DHT22;24821;51.988;6.020;2024-02-14T05:16:11;10.40;99.90
39067;DHT22;24821;51.988;6.020;2024-02-14T05:18:37;10.50;99.90
39067;DHT22;24821;51.988;6.020;2024-02-14T05:21:06;10.50;99.90
39067;DHT22;24821;51.988;6.020;2024-02-14T05:23:33;10.50;99.90
39067;DHT22;24821;51.988;6.020;2024-02-14T05:25:59;10.50;99.90
39067;DHT22;24821;51.988;6.020;2024-02-14T05:28:25;10.50;99.90
39067;DHT22;24821;51.988;6.020;2024-02-14T05:30:51;10.50;99.90
39067;DHT22;24821;51.988;6.020;2024-02-14T05:33:16;10.50;99.90
39067;DHT22;24821;51.988;6.020;2024-02-14T05:35:43;10.50;99.90
39067;DHT22;24821;51.988;6.020;2024-02-14T05:38:09;10.60;99.90
39067;DHT22;24821;51.988;6.020;2024-02-14T05:40:34;10.50;99.90
39067;DHT22;24821;51.988;6.020;2024-02-14T05:43:03;10.60;99.90
39067;DHT22;24821;51.988;6.020;2024-02-14T05:45:28;10.60;99.90
39067;DHT22;24821;51.988;6.020;2024-02-14T05:47:54;10.60;99.90
39067;DHT22;24821;51.988;6.020;2024-02-14T05:50:19;10.60;99.90
39067;DHT22;24821;51.988;6.020;2024-02-14T05:52:45;10.60;99.90
39067;DHT22;24821;51.988;6.020;2024-02-14T05:55:10;10.60;99.90
39067;DHT22;24821;51.988;6.020;2024-02-14T05:57:36;10.60;99.90
39067;DHT22;24821;51.988;6.020;2024-02-14T06:00:01;10.60;99.90
39067;DHT22;24821;51.988;6.020;2024-02-14T06:02:28;10.60;99.90
39067;DHT22;24821;51.988;6.020;2024-02-14T06:04:53;10.60;99.90
39067;DHT22;24821;51.988;6.020;2024-02-14T06:07:19;10.60;99.90
39067;DHT22;24821;51.988;6.020;2024-02-14T06:09:44;10.60;99.90
39067;DHT22;24821;51.988;6.020;2024-02-14T06:12:10;10.60;99.90
39067;DHT22;24821;51.988;6.020;2024-02-14T06:14:36;10.60;99.90
39067;DHT22;24821;51.988;6.020;2024-02-14T06:17:02;10.60;99.90
39067;DHT22;24821;51.988;6.020;2024-02-14T06:19:27;10.60;99.90
39067;DHT22;24821;51.988;6.020;2024-02-14T06:21:53;10.60;99.90
39067;DHT22;24821;51.988;6.020;2024-02-14T06:24:18;10.60;99.90
39067;DHT22;24821;51.988;6.020;2024-02-14T06:26:44;10.60;99.90
39067;DHT22;24821;51.988;6.020;2024-02-14T06:29:10;10.70;99.90
39067;DHT22;24821;51.988;6.020;2024-02-14T06:31:35;10.70;99.90
39067;DHT22;24821;51.988;6.020;2024-02-14T06:34:01;10.70;99.90
39067;DHT22;24821;51.988;6.020;2024-02-14T06:36:27;10.70;99.90
39067;DHT22;24821;51.988;6.020;2024-02-14T06:38:52;10.70;99.90
39067;DHT22;24821;51.988;6.020;2024-02-14T06:41:18;10.70;99.90
39067;DHT22;24821;51.988;6.020;2024-02-14T06:43:45;10.70;99.90
39067;DHT22;24821;51.988;6.020;2024-02-14T06:46:11;10.70;99.90
39067;DHT22;24821;51.988;6.020;2024-02-14T06:48:36;10.70;99.90
39067;DHT22;24821;51.988;6.020;2024-02-14T06:51:02;10.70;99.90
39067;DHT22;24821;51.988;6.020;2024-02-14T06:53:27;10.70;99.90
39067;DHT22;24821;51.988;6.020;2024-02-14T06:55:53;10.80;99.90
39067;DHT22;24821;51.988;6.020;2024-02-14T06:58:18;10.80;99.90
39067;DHT22;24821;51.988;6.020;2024-02-14T07:00:44;10.70;99.90
39067;DHT22;24821;51.988;6.020;2024-02-14T07:03:09;10.70;99.90
39067;DHT22;24821;51.988;6.020;2024-02-14T07:05:35;10.70;99.90
39067;DHT22;24821;51.988;6.020;2024-02-14T07:08:00;10.70;99.90
39067;DHT22;24821;51.988;6.020;2024-02-14T07:10:26;10.80;99.90
39067;DHT22;24821;51.988;6.020;2024-02-14T07:12:52;10.80;99.90
39067;DHT22;24821;51.988;6.020;2024-02-14T07:15:17;10.80;99.90
39067;DHT22;24821;51.988;6.020;2024-02-14T07:17:43;10.80;99.90
39067;DHT22;24821;51.988;6.020;2024-02-14T07:20:08;10.80;99.90
39067;DHT22;24821;51.988;6.020;2024-02-14T07:22:35;10.80;99.90
39067;DHT22;24821;51.988;6.020;2024-02-14T07:25:00;10.80;99.90
39067;DHT22;24821;51.988;6.020;2024-02-14T07:27:26;10.80;99.90
39067;DHT22;24821;51.988;6.020;2024-02-14T07:29:52;10.80;99.90
39067;DHT22;24821;51.988;6.020;2024-02-14T07:32:17;10.80;99.90
39067;DHT22;24821;51.988;6.020;2024-02-14T07:34:43;10.80;99.90
39067;DHT22;24821;51.988;6.020;2024-02-14T07:37:09;10.90;99.90
39067;DHT22;24821;51.988;6.020;2024-02-14T07:39:34;10.90;99.90
39067;DHT22;24821;51.988;6.020;2024-02-14T07:42:00;10.90;99.90
39067;DHT22;24821;51.988;6.020;2024-02-14T07:44:26;10.90;99.90
39067;DHT22;24821;51.988;6.020;2024-02-14T07:46:51;10.90;99.90
39067;DHT22;24821;51.988;6.020;2024-02-14T07:49:17;10.90;99.90
39067;DHT22;24821;51.988;6.020;2024-02-14T07:51:43;11.00;99.90
39067;DHT22;24821;51.988;6.020;2024-02-14T07:54:08;11.00;99.90
39067;DHT22;24821;51.988;6.020;2024-02-14T07:56:34;11.00;99.90
39067;DHT22;24821;51.988;6.020;2024-02-14T07:58:59;11.00;99.90
39067;DHT22;24821;51.988;6.020;2024-02-14T08:01:25;11.00;99.90
39067;DHT22;24821;51.988;6.020;2024-02-14T08:03:50;11.00;99.90
39067;DHT22;24821;51.988;6.020;2024-02-14T08:06:16;11.00;99.90
39067;DHT22;24821;51.988;6.020;2024-02-14T08:08:42;11.00;99.90
39067;DHT22;24821;51.988;6.020;2024-02-14T08:11:09;11.10;99.90
39067;DHT22;24821;51.988;6.020;2024-02-14T08:13:34;11.10;99.90
39067;DHT22;24821;51.988;6.020;2024-02-14T08:16:00;11.20;99.90
39067;DHT22;24821;51.988;6.020;2024-02-14T08:18:25;11.10;99.90
39067;DHT22;24821;51.988;6.020;2024-02-14T08:20:52;11.20;99.90
39067;DHT22;24821;51.988;6.020;2024-02-14T08:23:18;11.10;99.90
39067;DHT22;24821;51.988;6.020;2024-02-14T08:25:45;11.20;99.90
39067;DHT22;24821;51.988;6.020;2024-02-14T08:28:11;11.20;99.90
39067;DHT22;24821;51.988;6.020;2024-02-14T08:30:36;11.20;99.90
39067;DHT22;24821;51.988;6.020;2024-02-14T08:33:03;11.20;99.90
39067;DHT22;24821;51.988;6.020;2024-02-14T08:35:28;11.20;99.90
39067;DHT22;24821;51.988;6.020;2024-02-14T08:37:54;11.20;99.90
39067;DHT22;24821;51.988;6.020;2024-02-14T08:40:20;11.20;99.90
39067;DHT22;24821;51.988;6.020;2024-02-14T08:42:45;11.20;99.90
39067;DHT22;24821;51.988;6.020;2024-02-14T08:45:11;11.20;99.90
39067;DHT22;24821;51.988;6.020;2024-02-14T08:47:37;11.20;99.90
39067;DHT22;24821;51.988;6.020;2024-02-14T08:50:05;11.20;99.90
39067;DHT22;24821;51.988;6.020;2024-02-14T08:52:31;11.20;99.90
39067;DHT22;24821;51.988;6.020;2024-02-14T08:54:57;11.20;99.90
39067;DHT22;24821;51.988;6.020;2024-02-14T08:57:23;11.20;99.90
39067;DHT22;24821;51.988;6.020;2024-02-14T08:59:51;11.20;99.90
39067;DHT22;24821;51.988;6.020;2024-02-14T09:02:16;11.20;99.90
39067;DHT22;24821;51.988;6.020;2024-02-14T09:04:42;11.20;99.90
39067;DHT22;24821;51.988;6.020;2024-02-14T09:07:08;11.20;99.90
39067;DHT22;24821;51.988;6.020;2024-02-14T09:09:33;11.20;99.90
39067;DHT22;24821;51.988;6.020;2024-02-14T09:11:59;11.20;99.90
39067;DHT22;24821;51.988;6.020;2024-02-14T09:14:28;11.20;99.90
39067;DHT22;24821;51.988;6.020;2024-02-14T09:16:53;11.30;99.90
39067;DHT22;24821;51.988;6.020;2024-02-14T09:19:19;11.30;99.90
39067;DHT22;24821;51.988;6.020;2024-02-14T09:21:44;11.30;99.90
39067;DHT22;24821;51.988;6.020;2024-02-14T09:24:10;11.40;99.90
39067;DHT22;24821;51.988;6.020;2024-02-14T09:26:36;11.40;99.90
39067;DHT22;24821;51.988;6.020;2024-02-14T09:29:03;11.40;99.90
39067;DHT22;24821;51.988;6.020;2024-02-14T09:31:28;11.40;99.90
39067;DHT22;24821;51.988;6.020;2024-02-14T09:33:54;11.40;99.90
39067;DHT22;24821;51.988;6.020;2024-02-14T09:36:22;11.40;99.90
39067;DHT22;24821;51.988;6.020;2024-02-14T09:38:47;11.40;99.90
39067;DHT22;24821;51.988;6.020;2024-02-14T09:43:45;11.40;99.90
39067;DHT22;24821;51.988;6.020;2024-02-14T09:46:12;11.50;99.90
39067;DHT22;24821;51.988;6.020;2024-02-14T09:48:37;11.40;99.90
39067;DHT22;24821;51.988;6.020;2024-02-14T09:51:03;11.40;99.90
39067;DHT22;24821;51.988;6.020;2024-02-14T09:53:29;11.40;99.90
39067;DHT22;24821;51.988;6.020;2024-02-14T09:55:55;11.40;99.90
39067;DHT22;24821;51.988;6.020;2024-02-14T09:58:21;11.40;99.90
39067;DHT22;24821;51.988;6.020;2024-02-14T10:00:47;11.40;99.90
39067;DHT22;24821;51.988;6.020;2024-02-14T10:03:13;11.40;99.90
39067;DHT22;24821;51.988;6.020;2024-02-14T10:05:38;11.50;99.90
39067;DHT22;24821;51.988;6.020;2024-02-14T10:08:04;11.50;99.90
39067;DHT22;24821;51.988;6.020;2024-02-14T10:10:31;11.50;99.90
39067;DHT22;24821;51.988;6.020;2024-02-14T10:12:57;11.50;99.90
39067;DHT22;24821;51.988;6.020;2024-02-14T10:15:23;11.50;99.90
39067;DHT22;24821;51.988;6.020;2024-02-14T10:17:49;11.60;99.90
39067;DHT22;24821;51.988;6.020;2024-02-14T10:20:17;11.60;99.90
39067;DHT22;24821;51.988;6.020;2024-02-14T10:22:43;11.60;99.90
39067;DHT22;24821;51.988;6.020;2024-02-14T10:25:09;11.70;99.90
39067;DHT22;24821;51.988;6.020;2024-02-14T10:27:38;11.70;99.90
39067;DHT22;24821;51.988;6.020;2024-02-14T10:30:08;11.70;99.90
39067;DHT22;24821;51.988;6.020;2024-02-14T10:32:38;11.70;99.90
39067;DHT22;24821;51.988;6.020;2024-02-14T10:35:05;11.70;99.90
39067;DHT22;24821;51.988;6.020;2024-02-14T10:37:36;11.80;99.90
39067;DHT22;24821;51.988;6.020;2024-02-14T10:40:02;11.90;99.90
39067;DHT22;24821;51.988;6.020;2024-02-14T10:42:30;11.90;99.90
39067;DHT22;24821;51.988;6.020;2024-02-14T10:44:56;11.90;99.90
39067;DHT22;24821;51.988;6.020;2024-02-14T10:47:23;12.00;99.90
39067;DHT22;24821;51.988;6.020;2024-02-14T10:49:49;11.90;99.90
39067;DHT22;24821;51.988;6.020;2024-02-14T10:52:17;11.90;99.90
39067;DHT22;24821;51.988;6.020;2024-02-14T10:54:43;12.00;99.90
39067;DHT22;24821;51.988;6.020;2024-02-14T10:57:13;12.00;99.90
39067;DHT22;24821;51.988;6.020;2024-02-14T10:59:41;12.00;99.90
39067;DHT22;24821;51.988;6.020;2024-02-14T11:02:08;12.00;99.90
39067;DHT22;24821;51.988;6.020;2024-02-14T11:04:33;12.10;99.90
39067;DHT22;24821;51.988;6.020;2024-02-14T11:06:59;12.10;99.90
39067;DHT22;24821;51.988;6.020;2024-02-14T11:09:31;12.20;99.90
39067;DHT22;24821;51.988;6.020;2024-02-14T11:12:02;12.20;99.90
39067;DHT22;24821;51.988;6.020;2024-02-14T11:14:32;12.20;99.90
39067;DHT22;24821;51.988;6.020;2024-02-14T11:16:59;12.30;99.90
39067;DHT22;24821;51.988;6.020;2024-02-14T11:19:30;12.30;99.90
39067;DHT22;24821;51.988;6.020;2024-02-14T11:21:58;12.30;99.90
39067;DHT22;24821;51.988;6.020;2024-02-14T11:24:26;12.40;99.90
39067;DHT22;24821;51.988;6.020;2024-02-14T11:26:53;12.40;99.90
39067;DHT22;24821;51.988;6.020;2024-02-14T11:29:20;12.40;99.90
39067;DHT22;24821;51.988;6.020;2024-02-14T11:31:46;12.40;99.90
39067;DHT22;24821;51.988;6.020;2024-02-14T11:34:16;12.50;99.90
39067;DHT22;24821;51.988;6.020;2024-02-14T11:36:42;12.50;99.90
39067;DHT22;24821;51.988;6.020;2024-02-14T11:39:07;12.50;99.90
39067;DHT22;24821;51.988;6.020;2024-02-14T11:41:33;12.50;99.90
39067;DHT22;24821;51.988;6.020;2024-02-14T11:44:02;12.60;99.90
39067;DHT22;24821;51.988;6.020;2024-02-14T11:46:31;12.60;99.90
39067;DHT22;24821;51.988;6.020;2024-02-14T11:48:58;12.60;99.90
39067;DHT22;24821;51.988;6.020;2024-02-14T11:51:26;12.60;99.90
39067;DHT22;24821;51.988;6.020;2024-02-14T11:53:52;12.60;99.90
39067;DHT22;24821;51.988;6.020;2024-02-14T11:56:17;12.60;99.90
39067;DHT22;24821;51.988;6.020;2024-02-14T11:58:43;12.60;99.90
39067;DHT22;24821;51.988;6.020;2024-02-14T12:01:08;12.60;99.90
39067;DHT22;24821;51.988;6.020;2024-02-14T12:03:35;12.50;99.90
39067;DHT22;24821;51.988;6.020;2024-02-14T12:06:01;12.50;99.90
39067;DHT22;24821;51.988;6.020;2024-02-14T12:08:27;12.50;99.90
39067;DHT22;24821;51.988;6.020;2024-02-14T12:10:53;12.40;99.90
39067;DHT22;24821;51.988;6.020;2024-02-14T12:13:21;12.40;99.90
39067;DHT22;24821;51.988;6.020;2024-02-14T12:15:47;12.40;99.90
39067;DHT22;24821;51.988;6.020;2024-02-14T12:18:13;12.40;99.90
39067;DHT22;24821;51.988;6.020;2024-02-14T12:20:39;12.40;99.90
39067;DHT22;24821;51.988;6.020;2024-02-14T12:23:05;12.50;99.90
39067;DHT22;24821;51.988;6.020;2024-02-14T12:25:33;12.50;99.90
39067;DHT22;24821;51.988;6.020;2024-02-14T12:27:59;12.40;99.90
39067;DHT22;24821;51.988;6.020;2024-02-14T12:33:15;12.40;99.90
39067;DHT22;24821;51.988;6.020;2024-02-14T12:35:41;12.50;99.90
39067;DHT22;24821;51.988;6.020;2024-02-14T12:38:08;12.50;99.90
39067;DHT22;24821;51.988;6.020;2024-02-14T12:40:35;12.50;99.90
39067;DHT22;24821;51.988;6.020;2024-02-14T12:43:00;12.50;99.90
39067;DHT22;24821;51.988;6.020;2024-02-14T12:45:26;12.50;99.90
39067;DHT22;24821;51.988;6.020;2024-02-14T12:47:52;12.50;99.90
39067;DHT22;24821;51.988;6.020;2024-02-14T12:50:18;12.40;99.90
39067;DHT22;24821;51.988;6.020;2024-02-14T12:52:46;12.50;99.90
39067;DHT22;24821;51.988;6.020;2024-02-14T12:55:11;12.50;99.90
39067;DHT22;24821;51.988;6.020;2024-02-14T12:57:37;12.40;99.90
39067;DHT22;24821;51.988;6.020;2024-02-14T13:00:03;12.50;99.90
39067;DHT22;24821;51.988;6.020;2024-02-14T13:02:34;12.40;99.90
39067;DHT22;24821;51.988;6.020;2024-02-14T13:04:59;12.40;99.90
39067;DHT22;24821;51.988;6.020;2024-02-14T13:07:25;12.40;99.90
39067;DHT22;24821;51.988;6.020;2024-02-14T13:09:50;12.40;99.90
39067;DHT22;24821;51.988;6.020;2024-02-14T13:12:16;12.40;99.90
39067;DHT22;24821;51.988;6.020;2024-02-14T13:14:42;12.30;99.90
39067;DHT22;24821;51.988;6.020;2024-02-14T13:17:08;12.40;99.90
39067;DHT22;24821;51.988;6.020;2024-02-14T13:19:34;12.30;99.90
39067;DHT22;24821;51.988;6.020;2024-02-14T13:22:00;12.30;99.90
39067;DHT22;24821;51.988;6.020;2024-02-14T13:24:25;12.40;99.90
39067;DHT22;24821;51.988;6.020;2024-02-14T13:26:51;12.40;99.90
39067;DHT22;24821;51.988;6.020;2024-02-14T13:29:16;12.40;99.90
39067;DHT22;24821;51.988;6.020;2024-02-14T13:31:42;12.40;99.90
39067;DHT22;24821;51.988;6.020;2024-02-14T13:34:08;12.40;99.90
39067;DHT22;24821;51.988;6.020;2024-02-14T13:36:33;12.40;99.90
39067;DHT22;24821;51.988;6.020;2024-02-14T13:38:59;12.40;99.90
39067;DHT22;24821;51.988;6.020;2024-02-14T13:41:25;12.40;99.90
39067;DHT22;24821;51.988;6.020;2024-02-14T13:43:51;12.40;99.90
39067;DHT22;24821;51.988;6.020;2024-02-14T13:46:16;12.40;99.90
39067;DHT22;24821;51.988;6.020;2024-02-14T13:48:43;12.40;99.90
39067;DHT22;24821;51.988;6.020;2024-02-14T13:51:09;12.40;99.90
39067;DHT22;24821;51.988;6.020;2024-02-14T13:53:35;12.50;99.90
39067;DHT22;24821;51.988;6.020;2024-02-14T13:56:00;12.40;99.90
39067;DHT22;24821;51.988;6.020;2024-02-14T13:58:26;12.40;99.90
39067;DHT22;24821;51.988;6.020;2024-02-14T14:00:51;12.40;99.90
39067;DHT22;24821;51.988;6.020;2024-02-14T14:03:18;12.40;99.90
39067;DHT22;24821;51.988;6.020;2024-02-14T14:05:43;12.40;99.90
39067;DHT22;24821;51.988;6.020;2024-02-14T14:08:08;12.40;99.90
39067;DHT22;24821;51.988;6.020;2024-02-14T14:10:34;12.40;99.90
39067;DHT22;24821;51.988;6.020;2024-02-14T14:12:59;12.30;99.90
39067;DHT22;24821;51.988;6.020;2024-02-14T14:15:25;12.40;99.90
39067;DHT22;24821;51.988;6.020;2024-02-14T14:17:51;12.30;99.90
39067;DHT22;24821;51.988;6.020;2024-02-14T14:20:17;12.40;99.90
39067;DHT22;24821;51.988;6.020;2024-02-14T14:22:43;12.30;99.90
39067;DHT22;24821;51.988;6.020;2024-02-14T14:25:09;12.40;99.90
39067;DHT22;24821;51.988;6.020;2024-02-14T14:27:34;12.40;99.90
39067;DHT22;24821;51.988;6.020;2024-02-14T14:30:00;12.40;99.90
39067;DHT22;24821;51.988;6.020;2024-02-14T14:32:25;12.40;99.90
39067;DHT22;24821;51.988;6.020;2024-02-14T14:34:51;12.40;99.90
39067;DHT22;24821;51.988;6.020;2024-02-14T14:37:17;12.50;99.90
39067;DHT22;24821;51.988;6.020;2024-02-14T14:39:42;12.40;99.90
39067;DHT22;24821;51.988;6.020;2024-02-14T14:42:09;12.50;99.90
39067;DHT22;24821;51.988;6.020;2024-02-14T14:44:35;12.50;99.90
39067;DHT22;24821;51.988;6.020;2024-02-14T14:47:00;12.50;99.90
39067;DHT22;24821;51.988;6.020;2024-02-14T14:49:26;12.50;99.90
39067;DHT22;24821;51.988;6.020;2024-02-14T14:51:51;12.60;99.90
39067;DHT22;24821;51.988;6.020;2024-02-14T14:54:17;12.50;99.90
39067;DHT22;24821;51.988;6.020;2024-02-14T14:56:43;12.60;99.90
39067;DHT22;24821;51.988;6.020;2024-02-14T14:59:08;12.60;99.90
39067;DHT22;24821;51.988;6.020;2024-02-14T15:01:35;12.60;99.90
39067;DHT22;24821;51.988;6.020;2024-02-14T15:04:00;12.60;99.90
39067;DHT22;24821;51.988;6.020;2024-02-14T15:06:26;12.60;99.90
39067;DHT22;24821;51.988;6.020;2024-02-14T15:08:51;12.70;99.90
39067;DHT22;24821;51.988;6.020;2024-02-14T15:11:17;12.70;99.90
39067;DHT22;24821;51.988;6.020;2024-02-14T15:13:46;12.70;99.90
39067;DHT22;24821;51.988;6.020;2024-02-14T15:16:12;12.70;99.90
39067;DHT22;24821;51.988;6.020;2024-02-14T15:18:38;12.80;99.90
39067;DHT22;24821;51.988;6.020;2024-02-14T15:21:04;12.80;99.90
39067;DHT22;24821;51.988;6.020;2024-02-14T15:23:29;12.80;99.90
39067;DHT22;24821;51.988;6.020;2024-02-14T15:25:55;12.80;99.90
39067;DHT22;24821;51.988;6.020;2024-02-14T15:28:31;12.80;99.90
39067;DHT22;24821;51.988;6.020;2024-02-14T15:30:58;12.80;99.90
39067;DHT22;24821;51.988;6.020;2024-02-14T15:33:42;12.80;99.90